createdAt,value
2024-03-02T00:02:34.765Z,88.82
2024-03-02T00:07:36.749Z,87.79
2024-03-02T00:12:41.976Z,88.22
2024-03-02T00:17:44.090Z,88.52
2024-03-02T00:22:48.051Z,89.04
2024-03-02T00:27:51.666Z,89.32
2024-03-02T00:32:53.847Z,89.40
2024-03-02T00:37:56.269Z,88.97
2024-03-02T00:42:58.404Z,88.54
2024-03-02T00:48:00.397Z,88.54
2024-03-02T00:53:03.271Z,88.86
2024-03-02T00:58:05.351Z,88.47
2024-03-02T01:03:07.419Z,88.73
2024-03-02T01:08:10.228Z,88.73
2024-03-02T01:13:12.278Z,88.05
2024-03-02T01:18:14.356Z,89.02
2024-03-02T01:23:16.406Z,89.49
2024-03-02T01:28:18.663Z,89.44
2024-03-02T01:33:21.174Z,89.19
2024-03-02T01:38:23.421Z,88.44
2024-03-02T01:43:25.452Z,88.82
2024-03-02T01:48:27.576Z,88.33
2024-03-02T01:53:29.908Z,88.02
2024-03-02T01:58:31.981Z,87.78
2024-03-02T02:03:34.019Z,87.38
2024-03-02T02:08:36.107Z,87.21
2024-03-02T02:13:38.112Z,88.17
2024-03-02T02:18:40.178Z,87.63
2024-03-02T02:23:42.170Z,87.29
2024-03-02T02:28:44.164Z,87.81
2024-03-02T02:33:46.186Z,87.61
2024-03-02T02:38:48.344Z,87.84
2024-03-02T02:43:50.316Z,87.94
2024-03-02T02:48:52.463Z,88.20
2024-03-02T02:53:54.596Z,87.95
2024-03-02T02:58:56.665Z,88.46
2024-03-02T03:03:58.701Z,88.25
2024-03-02T03:09:00.798Z,88.20
2024-03-02T03:14:02.844Z,88.10
2024-03-02T03:19:04.990Z,88.26
2024-03-02T03:24:07.060Z,88.64
2024-03-02T03:29:09.132Z,88.48
2024-03-02T03:34:11.333Z,88.88
2024-03-02T03:39:13.348Z,88.59
2024-03-02T03:44:15.439Z,88.48
2024-03-02T03:49:17.446Z,89.15
2024-03-02T03:54:19.602Z,89.05
2024-03-02T03:59:21.621Z,88.53
2024-03-02T04:04:23.646Z,88.10
2024-03-02T04:09:25.729Z,87.83
2024-03-02T04:14:27.725Z,88.15
2024-03-02T04:19:29.784Z,87.78
2024-03-02T04:24:32.001Z,87.72
2024-03-02T04:29:34.077Z,88.07
2024-03-02T04:34:36.128Z,87.96
2024-03-02T04:39:38.268Z,88.24
2024-03-02T04:44:40.440Z,88.13
2024-03-02T04:49:42.528Z,88.29
2024-03-02T04:54:44.930Z,88.32
2024-03-02T04:59:47.016Z,88.67
2024-03-02T05:04:49.117Z,88.52
2024-03-02T05:09:51.200Z,88.28
2024-03-02T05:14:53.249Z,88.68
2024-03-02T05:19:55.337Z,88.80
2024-03-02T05:24:57.418Z,88.18
2024-03-02T05:29:59.772Z,88.29
2024-03-02T05:35:01.751Z,87.82
2024-03-02T05:40:04.228Z,87.64
2024-03-02T05:45:06.449Z,87.12
2024-03-02T05:50:08.862Z,87.19
2024-03-02T05:55:10.918Z,87.26
2024-03-02T06:00:13.336Z,87.02
2024-03-02T06:05:15.804Z,87.60
2024-03-02T06:10:17.946Z,87.67
2024-03-02T06:15:20.323Z,87.62
2024-03-02T06:20:22.335Z,87.49
2024-03-02T06:25:24.316Z,86.87
2024-03-02T06:30:26.327Z,85.97
2024-03-02T06:35:28.362Z,86.12
2024-03-02T06:40:30.301Z,85.92
2024-03-02T06:45:32.394Z,86.12
2024-03-02T06:50:34.558Z,85.74
2024-03-02T06:55:36.546Z,85.32
2024-03-02T07:00:38.660Z,85.08
2024-03-02T07:05:40.851Z,84.77
2024-03-02T07:10:42.970Z,84.57
2024-03-02T07:15:45.083Z,84.49
2024-03-02T07:20:47.107Z,83.55
2024-03-02T07:31:06.561Z,84.22
2024-03-02T07:36:08.693Z,84.27
2024-03-02T07:41:10.826Z,83.56
2024-03-02T07:46:12.928Z,84.19
2024-03-02T07:51:15.119Z,84.53
2024-03-02T07:56:17.134Z,83.85
2024-03-02T08:01:19.274Z,83.34
2024-03-02T08:06:21.357Z,82.89
2024-03-02T08:11:23.556Z,83.03
2024-03-02T08:16:25.564Z,81.70
2024-03-02T08:21:27.668Z,81.69
2024-03-02T08:26:29.619Z,80.80
2024-03-02T08:31:31.960Z,80.51
2024-03-02T08:36:34.144Z,79.44
2024-03-02T08:41:36.242Z,80.45
2024-03-02T08:46:38.239Z,79.49
2024-03-02T08:51:40.289Z,78.98
2024-03-02T08:56:42.559Z,78.12
2024-03-02T09:01:44.674Z,77.37
2024-03-02T09:06:46.694Z,77.31
2024-03-02T09:11:48.660Z,76.57
2024-03-02T09:16:50.809Z,76.32
2024-03-02T09:21:52.893Z,75.99
2024-03-02T09:26:54.988Z,76.17
2024-03-02T09:31:57.059Z,76.47
2024-03-02T09:36:59.433Z,76.13
2024-03-02T09:42:01.520Z,74.86
2024-03-02T09:47:03.623Z,72.70
2024-03-02T09:52:05.811Z,71.64
2024-03-02T09:57:08.235Z,70.56
2024-03-02T10:02:10.285Z,70.72
2024-03-02T10:07:13.855Z,69.37
2024-03-02T10:12:17.296Z,69.75
2024-03-02T10:17:19.517Z,70.35
2024-03-02T10:22:21.424Z,69.90
2024-03-02T10:27:28.673Z,69.84
2024-03-02T10:32:30.945Z,69.08
2024-03-02T10:37:33.297Z,70.02
2024-03-02T10:42:35.634Z,70.13
2024-03-02T10:47:38.545Z,69.09
2024-03-02T10:52:40.676Z,68.69
2024-03-02T10:57:53.480Z,68.10
2024-03-02T11:02:59.418Z,68.55
2024-03-02T11:08:07.923Z,69.02
2024-03-02T11:13:21.012Z,68.56
2024-03-02T11:18:23.143Z,68.43
2024-03-02T11:23:34.451Z,68.25
2024-03-02T11:28:37.056Z,68.05
2024-03-02T11:33:40.235Z,68.92
2024-03-02T11:38:42.369Z,69.95
2024-03-02T11:43:44.371Z,70.42
2024-03-02T11:48:46.549Z,69.33
2024-03-02T11:53:48.725Z,68.87
2024-03-02T11:58:53.737Z,69.58
2024-03-02T12:03:56.163Z,70.00
2024-03-02T12:08:58.271Z,70.88
2024-03-02T12:14:00.256Z,70.53
2024-03-02T12:19:02.261Z,71.53
2024-03-02T12:24:04.391Z,72.33
2024-03-02T12:29:06.739Z,72.96
2024-03-02T12:34:09.051Z,73.31
2024-03-02T12:39:11.027Z,72.47
2024-03-02T12:44:13.091Z,72.91
2024-03-02T12:49:16.159Z,73.03
2024-03-02T12:54:18.367Z,73.26
2024-03-02T12:59:24.815Z,73.26
2024-03-02T13:04:27.285Z,73.07
2024-03-02T13:09:29.370Z,73.98
2024-03-02T13:14:34.330Z,72.97
2024-03-02T13:19:36.693Z,72.94
2024-03-02T13:24:38.631Z,73.39
2024-03-02T13:29:40.728Z,73.74
2024-03-02T13:34:43.116Z,74.75
2024-03-02T13:39:45.092Z,74.02
2024-03-02T13:44:47.457Z,74.08
2024-03-02T13:49:49.964Z,73.54
2024-03-02T13:54:52.180Z,73.16
2024-03-02T13:59:54.358Z,73.00
2024-03-02T14:04:56.471Z,72.77
2024-03-02T14:09:58.436Z,72.27
2024-03-02T14:15:00.408Z,72.44
2024-03-02T14:20:02.471Z,72.36
2024-03-02T14:25:06.952Z,72.89
2024-03-02T14:30:09.817Z,72.78
2024-03-02T14:35:11.897Z,73.63
2024-03-02T14:40:14.015Z,74.29
2024-03-02T14:45:16.035Z,74.90
2024-03-02T14:50:18.114Z,75.26
2024-03-02T14:55:20.177Z,74.54
2024-03-02T15:00:23.516Z,74.37
2024-03-02T15:05:25.739Z,75.18
2024-03-02T15:10:27.703Z,74.96
2024-03-02T15:15:29.653Z,75.58
2024-03-02T15:20:31.634Z,75.81
2024-03-02T15:25:33.794Z,75.92
2024-03-02T15:30:35.892Z,76.08
2024-03-02T15:35:38.024Z,75.82
2024-03-02T15:40:58.567Z,76.44
2024-03-02T15:46:00.719Z,76.46
2024-03-02T15:51:05.745Z,77.05
2024-03-02T15:56:09.997Z,77.01
2024-03-02T16:01:12.277Z,77.25
2024-03-02T16:06:14.394Z,77.44
2024-03-02T16:11:16.565Z,77.97
2024-03-02T16:16:18.756Z,77.81
2024-03-02T16:21:21.516Z,77.60
2024-03-02T16:26:24.223Z,77.86
2024-03-02T16:31:26.195Z,77.95
2024-03-02T16:36:28.227Z,78.34
2024-03-02T16:41:30.247Z,78.37
2024-03-02T16:46:32.161Z,78.44
2024-03-02T16:51:43.752Z,78.78
2024-03-02T16:56:45.924Z,79.12
2024-03-02T17:01:48.016Z,78.74
2024-03-02T17:06:50.268Z,78.98
2024-03-02T17:11:52.412Z,79.04
2024-03-02T17:16:54.497Z,79.01
2024-03-02T17:21:56.520Z,79.55
2024-03-02T17:26:58.605Z,79.75
2024-03-02T17:32:00.701Z,80.24
2024-03-02T17:37:02.893Z,79.97
2024-03-02T17:42:05.296Z,80.46
2024-03-02T17:47:07.533Z,80.51
2024-03-02T17:52:10.925Z,80.34
2024-03-02T17:57:12.951Z,80.72
2024-03-02T18:02:14.974Z,81.05
2024-03-02T18:07:17.132Z,81.16
2024-03-02T18:12:19.168Z,80.86
2024-03-02T18:17:21.128Z,80.41
2024-03-02T18:22:23.184Z,78.05
2024-03-02T18:27:25.175Z,78.25
2024-03-02T18:32:27.097Z,77.97
2024-03-02T18:37:29.036Z,78.21
2024-03-02T18:42:49.481Z,77.09
2024-03-02T18:47:51.479Z,77.29
2024-03-02T18:52:53.441Z,78.20
2024-03-02T18:57:55.550Z,78.88
2024-03-02T19:02:57.505Z,78.01
2024-03-02T19:07:59.449Z,76.95
2024-03-02T19:13:01.581Z,76.35
2024-03-02T19:18:03.858Z,75.59
2024-03-02T19:23:05.988Z,75.46
2024-03-02T19:28:08.049Z,75.39
2024-03-02T19:33:10.151Z,75.36
2024-03-02T19:38:12.204Z,75.75
2024-03-02T19:43:14.205Z,75.88
2024-03-02T19:48:34.905Z,76.08
2024-03-02T19:53:36.930Z,76.48
2024-03-02T19:58:38.961Z,76.45
2024-03-02T20:03:41.093Z,77.07
2024-03-02T20:08:43.095Z,77.51
2024-03-02T20:13:45.133Z,79.05
2024-03-02T20:18:47.181Z,80.10
2024-03-02T20:23:49.475Z,82.54
2024-03-02T20:29:10.152Z,84.07
2024-03-02T20:34:12.340Z,84.09
2024-03-02T20:39:14.579Z,85.01
2024-03-02T20:44:17.186Z,85.21
2024-03-02T20:49:19.554Z,85.98
2024-03-02T20:54:21.658Z,86.32
2024-03-02T20:59:23.638Z,86.96
2024-03-02T21:04:25.623Z,87.55
2024-03-02T21:09:27.745Z,87.28
2024-03-02T21:14:29.895Z,87.74
2024-03-02T21:19:31.918Z,87.30
2024-03-02T21:24:34.401Z,87.73
2024-03-02T21:29:36.733Z,88.20
2024-03-02T21:34:38.938Z,88.13
2024-03-02T21:39:46.918Z,87.42
2024-03-02T21:44:49.659Z,87.38
2024-03-02T21:49:51.700Z,86.84
2024-03-02T21:54:53.892Z,86.64
2024-03-02T21:59:56.667Z,86.28
2024-03-02T22:04:58.673Z,86.21
2024-03-02T22:10:00.758Z,85.81
2024-03-02T22:15:02.937Z,85.78
2024-03-02T22:20:06.687Z,85.45
2024-03-02T22:25:08.758Z,85.17
2024-03-02T22:30:11.322Z,84.69
2024-03-02T22:35:13.108Z,84.90
2024-03-02T22:40:15.441Z,84.63
2024-03-02T22:45:18.133Z,84.62
2024-03-02T22:50:20.262Z,83.91
2024-03-02T22:55:22.395Z,83.84
2024-03-02T23:00:24.507Z,84.05
2024-03-02T23:05:26.531Z,83.60
2024-03-02T23:10:28.793Z,83.65
2024-03-02T23:15:31.718Z,84.02
2024-03-02T23:20:33.969Z,84.21
2024-03-02T23:25:36.127Z,84.05
2024-03-02T23:30:38.300Z,84.04
2024-03-02T23:35:40.535Z,83.94
2024-03-02T23:40:42.742Z,83.72
2024-03-02T23:45:44.880Z,83.76
2024-03-02T23:50:47.036Z,83.33
2024-03-02T23:55:52.691Z,83.41
